sensor_id;sensor_type;location;lat;lon;timestamp;pressure;altitude;pressure_sealevel;temperature;humidity
55317;BME280;41178;48.956;8.130;2023-01-29T00:01:44;101199.56;;;-0.50;50.28
55317;BME280;41178;48.956;8.130;2023-01-29T00:06:46;101222.09;;;-1.56;51.32
55317;BME280;41178;48.956;8.130;2023-01-29T00:11:47;101223.66;;;-2.10;51.68
55317;BME280;41178;48.956;8.130;2023-01-29T00:16:49;101199.25;;;0.07;49.11
55317;BME280;41178;48.956;8.130;2023-01-29T00:21:51;101255.31;;;-2.35;52.04
55317;BME280;41178;48.956;8.130;2023-01-29T00:26:53;101256.56;;;-2.44;52.08
55317;BME280;41178;48.956;8.130;2023-01-29T00:31:54;101242.13;;;-2.13;52.28
55317;BME280;41178;48.956;8.130;2023-01-29T00:36:56;101200.34;;;-1.21;50.88
55317;BME280;41178;48.956;8.130;2023-01-29T00:42:05;101230.75;;;-2.55;52.07
55317;BME280;41178;48.956;8.130;2023-01-29T00:47:25;101201.78;;;-1.71;50.67
55317;BME280;41178;48.956;8.130;2023-01-29T00:52:37;101210.88;;;-1.78;51.05
55317;BME280;41178;48.956;8.130;2023-01-29T00:57:41;101230.69;;;-2.53;51.33
55317;BME280;41178;48.956;8.130;2023-01-29T01:02:43;101222.28;;;-1.60;51.04
55317;BME280;41178;48.956;8.130;2023-01-29T01:08:03;101240.03;;;-2.05;50.89
55317;BME280;41178;48.956;8.130;2023-01-29T01:13:25;101242.19;;;-2.35;51.86
55317;BME280;41178;48.956;8.130;2023-01-29T01:18:30;101193.44;;;-0.68;49.90
55317;BME280;41178;48.956;8.130;2023-01-29T01:23:32;101224.00;;;-1.59;51.09
55317;BME280;41178;48.956;8.130;2023-01-29T01:28:34;101215.34;;;-1.42;50.54
55317;BME280;41178;48.956;8.130;2023-01-29T01:33:36;101202.81;;;-0.99;49.88
55317;BME280;41178;48.956;8.130;2023-01-29T01:38:38;101232.88;;;-1.62;49.96
55317;BME280;41178;48.956;8.130;2023-01-29T01:48:58;101270.59;;;-2.89;51.25
55317;BME280;41178;48.956;8.130;2023-01-29T01:54:16;101231.53;;;-1.51;50.14
55317;BME280;41178;48.956;8.130;2023-01-29T01:59:20;101219.03;;;-1.65;50.85
55317;BME280;41178;48.956;8.130;2023-01-29T02:04:24;101237.13;;;-2.60;52.10
55317;BME280;41178;48.956;8.130;2023-01-29T02:10:00;101228.88;;;-2.10;50.38
55317;BME280;41178;48.956;8.130;2023-01-29T02:15:05;101196.78;;;-1.01;49.48
55317;BME280;41178;48.956;8.130;2023-01-29T02:25:55;101240.19;;;-1.89;50.27
55317;BME280;41178;48.956;8.130;2023-01-29T02:36:39;101218.13;;;-1.45;50.90
55317;BME280;41178;48.956;8.130;2023-01-29T02:42:10;101249.66;;;-2.46;51.44
55317;BME280;41178;48.956;8.130;2023-01-29T02:47:20;101227.09;;;-1.70;50.61
55317;BME280;41178;48.956;8.130;2023-01-29T02:52:39;101190.84;;;-1.24;49.54
55317;BME280;41178;48.956;8.130;2023-01-29T02:57:46;101230.63;;;-2.11;50.82
55317;BME280;41178;48.956;8.130;2023-01-29T03:03:13;101177.25;;;-0.95;49.16
55317;BME280;41178;48.956;8.130;2023-01-29T03:08:24;101175.03;;;-0.51;48.72
55317;BME280;41178;48.956;8.130;2023-01-29T03:19:04;101204.69;;;-1.20;49.12
55317;BME280;41178;48.956;8.130;2023-01-29T03:24:09;101192.53;;;-1.23;49.07
55317;BME280;41178;48.956;8.130;2023-01-29T03:29:31;101205.88;;;-1.08;49.73
55317;BME280;41178;48.956;8.130;2023-01-29T03:34:57;101170.13;;;-0.06;48.46
55317;BME280;41178;48.956;8.130;2023-01-29T03:40:04;101238.41;;;-1.88;51.02
55317;BME280;41178;48.956;8.130;2023-01-29T03:45:21;101234.47;;;-2.38;51.75
55317;BME280;41178;48.956;8.130;2023-01-29T04:00:39;101209.59;;;-1.50;50.02
55317;BME280;41178;48.956;8.130;2023-01-29T04:05:55;101208.75;;;-1.32;49.04
55317;BME280;41178;48.956;8.130;2023-01-29T04:11:02;101183.75;;;-0.85;49.80
55317;BME280;41178;48.956;8.130;2023-01-29T04:16:10;101211.88;;;-1.43;49.82
55317;BME280;41178;48.956;8.130;2023-01-29T04:21:14;101227.84;;;-1.47;50.96
55317;BME280;41178;48.956;8.130;2023-01-29T04:26:47;101226.22;;;-2.08;50.35
55317;BME280;41178;48.956;8.130;2023-01-29T04:42:29;101232.19;;;-2.68;52.43
55317;BME280;41178;48.956;8.130;2023-01-29T04:47:38;101222.13;;;-3.23;53.57
55317;BME280;41178;48.956;8.130;2023-01-29T04:53:07;101210.72;;;-3.22;53.42
55317;BME280;41178;48.956;8.130;2023-01-29T05:03:25;101207.66;;;-2.45;53.67
55317;BME280;41178;48.956;8.130;2023-01-29T05:08:29;101194.41;;;-2.62;52.67
55317;BME280;41178;48.956;8.130;2023-01-29T05:13:33;101179.69;;;-2.05;51.98
55317;BME280;41178;48.956;8.130;2023-01-29T05:18:40;101185.22;;;-2.52;52.23
55317;BME280;41178;48.956;8.130;2023-01-29T05:23:41;101171.06;;;-2.27;51.20
55317;BME280;41178;48.956;8.130;2023-01-29T05:28:53;101116.22;;;-1.20;50.30
55317;BME280;41178;48.956;8.130;2023-01-29T05:33:56;101176.06;;;-2.02;50.47
55317;BME280;41178;48.956;8.130;2023-01-29T05:38:58;101109.34;;;-0.35;48.48
55317;BME280;41178;48.956;8.130;2023-01-29T05:44:00;101176.34;;;-2.29;50.74
55317;BME280;41178;48.956;8.130;2023-01-29T05:49:02;101123.50;;;-1.07;49.45
55317;BME280;41178;48.956;8.130;2023-01-29T05:54:04;101174.81;;;-2.33;51.58
55317;BME280;41178;48.956;8.130;2023-01-29T05:59:07;101174.97;;;-1.97;51.76
55317;BME280;41178;48.956;8.130;2023-01-29T06:04:09;101204.78;;;-2.39;51.33
55317;BME280;41178;48.956;8.130;2023-01-29T06:09:10;101206.00;;;-2.48;52.74
55317;BME280;41178;48.956;8.130;2023-01-29T06:14:12;101210.03;;;-3.27;53.97
55317;BME280;41178;48.956;8.130;2023-01-29T06:19:14;101196.78;;;-2.78;53.06
55317;BME280;41178;48.956;8.130;2023-01-29T06:24:16;101197.47;;;-2.95;53.86
55317;BME280;41178;48.956;8.130;2023-01-29T06:29:18;101197.06;;;-3.30;53.83
55317;BME280;41178;48.956;8.130;2023-01-29T06:34:19;101171.69;;;-2.84;52.88
55317;BME280;41178;48.956;8.130;2023-01-29T06:39:21;101175.09;;;-2.82;53.05
55317;BME280;41178;48.956;8.130;2023-01-29T06:44:23;101165.69;;;-2.65;53.13
55317;BME280;41178;48.956;8.130;2023-01-29T06:49:24;101125.53;;;-1.87;52.47
55317;BME280;41178;48.956;8.130;2023-01-29T06:54:26;101140.47;;;-2.27;52.58
55317;BME280;41178;48.956;8.130;2023-01-29T06:59:28;101174.41;;;-3.53;54.63
55317;BME280;41178;48.956;8.130;2023-01-29T07:04:29;101170.91;;;-3.76;55.52
55317;BME280;41178;48.956;8.130;2023-01-29T07:09:31;101172.66;;;-3.31;55.44
55317;BME280;41178;48.956;8.130;2023-01-29T07:14:33;101170.47;;;-3.19;55.44
55317;BME280;41178;48.956;8.130;2023-01-29T07:19:35;101136.34;;;-2.53;54.53
55317;BME280;41178;48.956;8.130;2023-01-29T07:24:36;101166.22;;;-3.22;54.74
55317;BME280;41178;48.956;8.130;2023-01-29T07:29:38;101140.69;;;-2.73;53.78
55317;BME280;41178;48.956;8.130;2023-01-29T07:34:40;101149.59;;;-2.99;54.35
55317;BME280;41178;48.956;8.130;2023-01-29T07:39:41;101154.38;;;-3.10;54.77
55317;BME280;41178;48.956;8.130;2023-01-29T07:44:43;101152.19;;;-2.77;54.21
55317;BME280;41178;48.956;8.130;2023-01-29T07:49:45;101182.78;;;-3.22;55.08
55317;BME280;41178;48.956;8.130;2023-01-29T07:54:47;101187.81;;;-3.17;55.29
55317;BME280;41178;48.956;8.130;2023-01-29T07:59:48;101169.97;;;-3.07;55.13
55317;BME280;41178;48.956;8.130;2023-01-29T08:04:50;101168.63;;;-2.73;54.55
55317;BME280;41178;48.956;8.130;2023-01-29T08:09:52;101182.88;;;-3.01;54.63
55317;BME280;41178;48.956;8.130;2023-01-29T08:14:53;101157.41;;;-2.36;53.09
55317;BME280;41178;48.956;8.130;2023-01-29T08:19:55;101202.78;;;-3.43;54.44
55317;BME280;41178;48.956;8.130;2023-01-29T08:24:57;101201.00;;;-3.42;54.54
55317;BME280;41178;48.956;8.130;2023-01-29T08:30:09;101145.84;;;-2.11;52.29
55317;BME280;41178;48.956;8.130;2023-01-29T08:35:11;101184.03;;;-2.86;53.52
55317;BME280;41178;48.956;8.130;2023-01-29T08:40:13;101181.59;;;-2.70;53.53
55317;BME280;41178;48.956;8.130;2023-01-29T08:45:15;101176.78;;;-2.59;52.72
55317;BME280;41178;48.956;8.130;2023-01-29T11:16:43;101104.25;;;-0.04;48.81
55317;BME280;41178;48.956;8.130;2023-01-29T11:26:57;101145.16;;;-1.96;49.79
55317;BME280;41178;48.956;8.130;2023-01-29T11:37:38;101072.81;;;0.56;48.34
55317;BME280;41178;48.956;8.130;2023-01-29T11:42:40;101086.09;;;-0.27;48.82
55317;BME280;41178;48.956;8.130;2023-01-29T11:47:48;101074.91;;;-0.30;48.29
55317;BME280;41178;48.956;8.130;2023-01-29T11:52:51;101073.53;;;-0.37;48.98
55317;BME280;41178;48.956;8.130;2023-01-29T12:03:06;101038.34;;;0.13;48.80
55317;BME280;41178;48.956;8.130;2023-01-29T12:08:16;101030.25;;;0.78;48.20
55317;BME280;41178;48.956;8.130;2023-01-29T12:13:25;101054.41;;;-1.09;49.47
55317;BME280;41178;48.956;8.130;2023-01-29T12:18:52;101029.94;;;0.06;48.90
55317;BME280;41178;48.956;8.130;2023-01-29T12:29:51;100990.94;;;0.59;48.83
55317;BME280;41178;48.956;8.130;2023-01-29T12:40:24;100959.66;;;0.39;48.71
55317;BME280;41178;48.956;8.130;2023-01-29T12:45:28;100964.94;;;-0.39;48.39
55317;BME280;41178;48.956;8.130;2023-01-29T12:50:32;100967.22;;;-0.49;49.27
55317;BME280;41178;48.956;8.130;2023-01-29T13:00:43;100941.97;;;0.41;49.28
55317;BME280;41178;48.956;8.130;2023-01-29T13:05:53;100941.75;;;-0.49;49.57
55317;BME280;41178;48.956;8.130;2023-01-29T13:10:58;100903.34;;;0.56;48.97
55317;BME280;41178;48.956;8.130;2023-01-29T13:16:06;100929.47;;;1.18;48.57
55317;BME280;41178;48.956;8.130;2023-01-29T13:21:13;100921.75;;;0.86;49.07
55317;BME280;41178;48.956;8.130;2023-01-29T13:26:18;100916.13;;;0.47;48.98
55317;BME280;41178;48.956;8.130;2023-01-29T13:31:28;100913.81;;;0.57;49.10
55317;BME280;41178;48.956;8.130;2023-01-29T13:36:30;100917.00;;;0.62;48.48
55317;BME280;41178;48.956;8.130;2023-01-29T13:41:38;100910.91;;;0.76;48.70
55317;BME280;41178;48.956;8.130;2023-01-29T13:46:47;100917.97;;;1.04;48.36
55317;BME280;41178;48.956;8.130;2023-01-29T13:51:50;100901.78;;;0.67;48.64
55317;BME280;41178;48.956;8.130;2023-01-29T14:02:00;100925.66;;;0.64;48.75
55317;BME280;41178;48.956;8.130;2023-01-29T14:12:44;100914.22;;;1.37;48.16
55317;BME280;41178;48.956;8.130;2023-01-29T14:23:00;100891.31;;;0.66;48.48
55317;BME280;41178;48.956;8.130;2023-01-29T14:28:13;100902.97;;;-0.29;50.44
55317;BME280;41178;48.956;8.130;2023-01-29T14:33:35;100892.41;;;1.63;48.01
55317;BME280;41178;48.956;8.130;2023-01-29T14:38:39;100898.16;;;1.55;48.41
55317;BME280;41178;48.956;8.130;2023-01-29T14:43:46;100888.41;;;1.42;48.30
55317;BME280;41178;48.956;8.130;2023-01-29T14:48:48;100862.91;;;0.57;49.38
55317;BME280;41178;48.956;8.130;2023-01-29T14:54:16;100878.16;;;0.52;49.09
55317;BME280;41178;48.956;8.130;2023-01-29T14:59:26;100863.19;;;1.10;48.69
55317;BME280;41178;48.956;8.130;2023-01-29T15:04:47;100867.69;;;0.93;48.99
55317;BME280;41178;48.956;8.130;2023-01-29T15:20:30;100874.47;;;0.40;49.25
55317;BME280;41178;48.956;8.130;2023-01-29T15:25:47;100878.53;;;0.74;49.25
55317;BME280;41178;48.956;8.130;2023-01-29T15:30:54;100877.22;;;0.81;48.75
55317;BME280;41178;48.956;8.130;2023-01-29T15:36:01;100880.13;;;0.91;48.56
55317;BME280;41178;48.956;8.130;2023-01-29T15:41:19;100876.69;;;0.31;48.71
55317;BME280;41178;48.956;8.130;2023-01-29T15:46:26;100892.03;;;-0.37;49.26
55317;BME280;41178;48.956;8.130;2023-01-29T15:51:30;100875.53;;;0.80;48.73
55317;BME280;41178;48.956;8.130;2023-01-29T15:56:36;100879.59;;;0.72;48.60
55317;BME280;41178;48.956;8.130;2023-01-29T16:01:39;100888.97;;;0.17;49.76
55317;BME280;41178;48.956;8.130;2023-01-29T16:06:41;100885.84;;;0.10;49.83
55317;BME280;41178;48.956;8.130;2023-01-29T16:11:45;100894.66;;;0.09;49.69
55317;BME280;41178;48.956;8.130;2023-01-29T16:16:47;100882.59;;;-0.10;50.06
55317;BME280;41178;48.956;8.130;2023-01-29T16:21:55;100879.34;;;0.46;49.17
55317;BME280;41178;48.956;8.130;2023-01-29T16:27:02;100890.91;;;-0.17;50.00
55317;BME280;41178;48.956;8.130;2023-01-29T16:32:09;100888.53;;;0.24;50.02
55317;BME280;41178;48.956;8.130;2023-01-29T16:37:21;100880.06;;;-0.27;50.44
55317;BME280;41178;48.956;8.130;2023-01-29T16:42:30;100880.19;;;0.02;50.59
55317;BME280;41178;48.956;8.130;2023-01-29T16:47:40;100873.34;;;-1.30;51.47
55317;BME280;41178;48.956;8.130;2023-01-29T16:58:21;100871.22;;;-1.39;52.85
55317;BME280;41178;48.956;8.130;2023-01-29T17:03:26;100843.31;;;0.02;51.37
55317;BME280;41178;48.956;8.130;2023-01-29T17:08:31;100845.53;;;-0.21;51.19
55317;BME280;41178;48.956;8.130;2023-01-29T17:13:39;100824.22;;;0.14;50.03
55317;BME280;41178;48.956;8.130;2023-01-29T17:18:43;100828.25;;;-0.41;51.09
55317;BME280;41178;48.956;8.130;2023-01-29T17:23:44;100838.34;;;-0.33;51.34
55317;BME280;41178;48.956;8.130;2023-01-29T17:28:48;100836.63;;;-0.50;51.45
55317;BME280;41178;48.956;8.130;2023-01-29T17:33:50;100823.50;;;-0.82;51.61
55317;BME280;41178;48.956;8.130;2023-01-29T17:38:52;100815.78;;;-0.85;51.61
55317;BME280;41178;48.956;8.130;2023-01-29T17:43:53;100823.16;;;-0.76;51.79
55317;BME280;41178;48.956;8.130;2023-01-29T17:48:55;100823.00;;;-0.89;51.98
55317;BME280;41178;48.956;8.130;2023-01-29T17:53:57;100855.34;;;-1.04;52.86
55317;BME280;41178;48.956;8.130;2023-01-29T17:58:59;100837.22;;;-0.61;52.11
55317;BME280;41178;48.956;8.130;2023-01-29T18:04:01;100835.19;;;-0.88;51.99
55317;BME280;41178;48.956;8.130;2023-01-29T18:09:03;100822.31;;;-0.76;52.19
55317;BME280;41178;48.956;8.130;2023-01-29T18:14:05;100815.72;;;-0.52;52.39
55317;BME280;41178;48.956;8.130;2023-01-29T18:19:23;100800.13;;;-0.25;51.65
55317;BME280;41178;48.956;8.130;2023-01-29T18:24:27;100825.03;;;-0.78;52.68
55317;BME280;41178;48.956;8.130;2023-01-29T18:29:30;100819.34;;;-0.70;52.11
55317;BME280;41178;48.956;8.130;2023-01-29T18:34:32;100841.97;;;-1.00;52.88
55317;BME280;41178;48.956;8.130;2023-01-29T18:39:33;100842.22;;;-0.88;52.90
55317;BME280;41178;48.956;8.130;2023-01-29T18:44:35;100835.50;;;-1.10;53.20
55317;BME280;41178;48.956;8.130;2023-01-29T18:49:37;100834.16;;;-1.01;52.96
55317;BME280;41178;48.956;8.130;2023-01-29T18:54:39;100824.25;;;-0.96;52.94
55317;BME280;41178;48.956;8.130;2023-01-29T18:59:41;100844.06;;;-1.40;53.81
55317;BME280;41178;48.956;8.130;2023-01-29T19:04:45;100835.78;;;-1.48;54.58
55317;BME280;41178;48.956;8.130;2023-01-29T19:09:47;100833.31;;;-1.18;53.54
55317;BME280;41178;48.956;8.130;2023-01-29T19:14:50;100813.25;;;-0.55;52.92
55317;BME280;41178;48.956;8.130;2023-01-29T19:19:52;100804.50;;;-0.71;52.90
55317;BME280;41178;48.956;8.130;2023-01-29T19:24:54;100823.69;;;-1.34;54.08
55317;BME280;41178;48.956;8.130;2023-01-29T19:29:58;100804.00;;;-0.94;53.04
55317;BME280;41178;48.956;8.130;2023-01-29T19:35:00;100806.09;;;-1.66;54.20
55317;BME280;41178;48.956;8.130;2023-01-29T19:40:02;100790.09;;;-0.80;53.51
55317;BME280;41178;48.956;8.130;2023-01-29T19:45:04;100800.78;;;-0.99;53.48
55317;BME280;41178;48.956;8.130;2023-01-29T19:50:10;100795.34;;;-0.96;53.88
55317;BME280;41178;48.956;8.130;2023-01-29T19:55:12;100783.22;;;-0.83;53.22
55317;BME280;41178;48.956;8.130;2023-01-29T20:00:14;100799.41;;;-1.22;53.20
55317;BME280;41178;48.956;8.130;2023-01-29T20:05:17;100793.91;;;-0.86;53.77
55317;BME280;41178;48.956;8.130;2023-01-29T20:10:20;100805.88;;;-1.45;54.32
55317;BME280;41178;48.956;8.130;2023-01-29T20:15:22;100757.50;;;-0.46;52.94
55317;BME280;41178;48.956;8.130;2023-01-29T20:20:24;100802.78;;;-1.87;54.95
55317;BME280;41178;48.956;8.130;2023-01-29T20:25:33;100789.13;;;-1.43;54.48
55317;BME280;41178;48.956;8.130;2023-01-29T20:30:35;100783.38;;;-1.67;55.12
55317;BME280;41178;48.956;8.130;2023-01-29T20:35:37;100775.91;;;-1.75;54.85
55317;BME280;41178;48.956;8.130;2023-01-29T20:40:39;100780.41;;;-1.94;54.85
55317;BME280;41178;48.956;8.130;2023-01-29T20:45:41;100782.03;;;-2.09;55.46
55317;BME280;41178;48.956;8.130;2023-01-29T20:50:43;100768.56;;;-1.68;54.75
55317;BME280;41178;48.956;8.130;2023-01-29T20:55:44;100764.69;;;-2.12;55.83
55317;BME280;41178;48.956;8.130;2023-01-29T21:00:46;100766.16;;;-2.06;55.96
55317;BME280;41178;48.956;8.130;2023-01-29T21:05:48;100738.97;;;-1.38;55.18
55317;BME280;41178;48.956;8.130;2023-01-29T21:10:51;100748.41;;;-2.01;55.87
55317;BME280;41178;48.956;8.130;2023-01-29T21:15:53;100722.38;;;-1.23;54.49
55317;BME280;41178;48.956;8.130;2023-01-29T21:20:54;100744.34;;;-1.73;54.96
55317;BME280;41178;48.956;8.130;2023-01-29T21:26:01;100720.66;;;-1.40;54.89
55317;BME280;41178;48.956;8.130;2023-01-29T21:31:05;100729.56;;;-1.42;54.85
55317;BME280;41178;48.956;8.130;2023-01-29T21:36:08;100738.72;;;-1.49;55.41
55317;BME280;41178;48.956;8.130;2023-01-29T21:41:11;100742.84;;;-2.30;57.49
55317;BME280;41178;48.956;8.130;2023-01-29T21:46:13;100731.38;;;-1.76;56.52
55317;BME280;41178;48.956;8.130;2023-01-29T21:51:16;100747.78;;;-2.76;58.03
55317;BME280;41178;48.956;8.130;2023-01-29T21:56:19;100704.84;;;-1.22;55.43
55317;BME280;41178;48.956;8.130;2023-01-29T22:01:21;100744.06;;;-2.54;57.62
55317;BME280;41178;48.956;8.130;2023-01-29T22:06:38;100724.44;;;-2.45;57.54
55317;BME280;41178;48.956;8.130;2023-01-29T22:11:40;100708.59;;;-2.09;56.60
55317;BME280;41178;48.956;8.130;2023-01-29T22:16:42;100703.50;;;-2.12;56.16
55317;BME280;41178;48.956;8.130;2023-01-29T22:21:44;100695.59;;;-2.45;56.75
55317;BME280;41178;48.956;8.130;2023-01-29T22:26:45;100687.81;;;-1.96;56.47
55317;BME280;41178;48.956;8.130;2023-01-29T22:31:49;100682.50;;;-2.12;57.06
55317;BME280;41178;48.956;8.130;2023-01-29T22:36:51;100686.13;;;-2.48;57.18
55317;BME280;41178;48.956;8.130;2023-01-29T22:41:53;100662.03;;;-2.21;56.86
55317;BME280;41178;48.956;8.130;2023-01-29T22:46:54;100659.44;;;-2.39;57.44
55317;BME280;41178;48.956;8.130;2023-01-29T22:51:56;100648.56;;;-2.49;57.30
55317;BME280;41178;48.956;8.130;2023-01-29T22:57:12;100638.84;;;-2.46;57.29
55317;BME280;41178;48.956;8.130;2023-01-29T23:02:14;100611.50;;;-1.92;56.61
55317;BME280;41178;48.956;8.130;2023-01-29T23:07:16;100618.59;;;-2.60;57.79
55317;BME280;41178;48.956;8.130;2023-01-29T23:12:17;100617.16;;;-2.33;57.25
55317;BME280;41178;48.956;8.130;2023-01-29T23:17:19;100628.69;;;-2.70;57.09
55317;BME280;41178;48.956;8.130;2023-01-29T23:22:20;100598.50;;;-2.11;56.46
55317;BME280;41178;48.956;8.130;2023-01-29T23:27:22;100625.63;;;-2.96;57.59
55317;BME280;41178;48.956;8.130;2023-01-29T23:32:24;100586.38;;;-2.29;57.34
55317;BME280;41178;48.956;8.130;2023-01-29T23:37:26;100561.47;;;-2.04;56.30
55317;BME280;41178;48.956;8.130;2023-01-29T23:42:27;100568.81;;;-2.27;56.78
55317;BME280;41178;48.956;8.130;2023-01-29T23:47:29;100568.16;;;-2.15;56.71
55317;BME280;41178;48.956;8.130;2023-01-29T23:52:31;100577.56;;;-2.44;56.90
55317;BME280;41178;48.956;8.130;2023-01-29T23:57:32;100536.59;;;-1.81;56.29
